Aérodrome :
LOGIN :

S'inscrire | Disclaimer

   EN    FR    IT 

 










Légende :    VFR   VFR Marginal   IFR   IFR Intensif   IFR Très Intensif
Visi : 
Plafond : 
>= 8 km
>= 3000ft
5 à 8 km
1000 à 3000 ft
1500m à 5 km
500 à 1000 ft
800 à 1500m
200 à 500 ft
< 800m
< 200 ft
Symboles :   Orages  Brouillard  Fortes neiges  Fortes précipitations  Vent > 20 kt
SIGMETs :   Divers  Orages  Givrage  Turbulence  Onde Orograph.  Cendres Volcan.







- Altitude de l'aérodrome : 302 ft
- Code IATA : CGN


EDDK - Cologne Bonn

DERNIER METAR :
  • 220920Z 27011KT 240V300 9999 FEW048 25/12 Q1024 NOSIG

METARs EXPIRÉS :
  • 220850Z 28012KT 240V310 9999 FEW048 25/12 Q1024 NOSIG
  • 220820Z 25008KT 200V310 CAVOK 24/13 Q1024 NOSIG
  • 220750Z 20005KT 170V260 CAVOK 23/13 Q1024 NOSIG
  • 220720Z 19004KT 150V240 CAVOK 21/13 Q1024 NOSIG
  • 220650Z 16005KT 130V190 CAVOK 19/14 Q1024 NOSIG

TAF TAF EDDK
Valide du 22 à 06h jusqu'au 23 à 12h UTC


220500Z 2206/2312 VRB03KT CAVOK
TEMPO 2208/2218 28006KT
Pas de NOTAMs connus pour ce terrain.



MET'MAP, la Météo Aéronautique d'un coup d'oeil ! - Copyright ORBIFLY Décembre 2007 - Disclaimer

ORBIFLY MET'MAP TEAM :

Programmation & Développement : Alexandra Zaïnal
Conception & Développement : Baudouin d'Aumeries
Co-Programmation & Développement : Marc-Olivier Méhu
Soutien technique & logistique : Manuel Goepfert

Contact : metmap@orbifly.com




SOURCES & CREDITS :

   NOAA